Station: Whyalla

  Atmospheric Gas Attenuation - ITU Rec 676-11   --------------- db/100km ---------------
Date Time Temp RH % AH g/m3 Dew Point Wind Direction Speed kph Gust kph Barometer mB Rainfall Since 9am 24GHz 47GHz 76GHz 122GHz 134GHz 241GHz
03 08:40 15.9 67 9.07 9.8 20 26 1021.4 0 20.5 26.3 41.0 107.5 102.6 353.2
03 08:30 15.9 66 8.94 9.6 24 33 1020.7 0 20.2 26.1 40.4 106.1 100.8 347.1
03 08:20 15.5 68 8.99 9.6 22 30 1019.9 0 20.3 26.3 40.8 107.0 101.9 350.9
03 08:10 15.7 67 8.96 9.6 24 28 1020.4 0 20.3 26.2 40.6 106.5 101.3 348.8
03 08:00 15.8 65 8.75 9.2 28 37 1020.1 0 19.8 25.8 39.7 104.1 98.4 338.7
03 07:50 15.8 66 8.88 9.5 28 32 1019.6 0 20.1 26.0 40.2 105.4 100.0 344.4
03 07:40 16.2 64 8.83 9.4 24 35 1019.7 0 20.0 25.8 39.8 104.4 98.9 340.5
03 07:30 15.8 67 9.02 9.7 24 35 1019.8 0 20.4 26.2 40.8 106.9 101.9 350.9
03 07:20 15.5 69 9.12 9.8 20 24 1019.9 0 20.6 26.5 41.3 108.4 103.6 356.9
03 07:10 15.2 69 8.96 9.6 26 30 1019.6 0 20.3 26.3 40.8 107.1 101.9 350.8
03 07:00 15.2 69 8.96 9.6 28 37 1019.2 0 20.3 26.3 40.8 107.1 101.8 350.6
03 06:50 15.4 68 8.93 9.5 30 37 1018.8 0 20.2 26.2 40.6 106.4 101.1 348.3
03 06:40 15.2 69 8.96 9.6 35 43 1018.4 0 20.3 26.3 40.8 107.0 101.8 350.4
03 06:30 15 70 8.98 9.6 24 39 1018.7 0 20.3 26.4 41.0 107.5 102.3 352.3
03 06:20 14.9 69 8.79 9.3 24 32 1019 0 19.9 26.1 40.3 105.6 100.0 344.1
03 06:10 14.8 69 8.74 9.2 30 35 1018.9 0 19.8 26.0 40.1 105.2 99.4 342.2
03 06:00 14.7 69 8.69 9.1 26 39 1019 0 19.7 26.0 40.0 104.8 98.9 340.3
03 05:50 14.6 69 8.63 9 26 33 1019 0 19.6 25.9 39.8 104.3 98.3 338.0
03 05:40 14.5 69 8.58 8.9 19 26 1018.8 0 19.5 25.9 39.6 103.9 97.7 336.1
03 05:30 14.7 68 8.56 8.9 24 35 1018.7 0 19.5 25.8 39.4 103.4 97.2 334.3
03 05:20 14.8 66 8.36 8.5 26 35 1018.4 0 19.0 25.4 38.6 101.1 94.4 324.7
03 05:00 15 64 8.21 8.3 26 41 1018.6 0 18.7 25.1 37.9 99.3 92.3 317.1
03 04:50 15 64 8.21 8.3 28 33 1018.2 0 18.7 25.1 37.9 99.3 92.2 317.0
03 04:40 15.1 64 8.26 8.3 26 32 1018.6 0 18.8 25.2 38.1 99.7 92.8 319.0
03 04:30 15.2 63 8.18 8.2 28 37 1018.6 0 18.6 25.0 37.7 98.8 91.7 315.0
03 04:20 15.2 62 8.05 8 26 32 1018.4 0 18.3 24.8 37.2 97.4 90.0 309.1
03 04:10 15.3 63 8.23 8.3 24 30 1018.6 0 18.7 25.1 37.8 99.2 92.2 316.8
03 04:00 15.4 63 8.28 8.4 24 35 1018.5 0 18.8 25.1 38.0 99.5 92.7 318.7
03 03:50 15.6 62 8.25 8.4 22 24 1018.5 0 18.8 25.0 37.8 99.0 92.1 316.5
03 03:40 15.7 65 8.7 9.1 22 26 1018.7 0 19.7 25.7 39.5 103.6 97.8 336.4
03 03:30 15.8 66 8.88 9.5 26 35 1018.7 0 20.1 26.0 40.2 105.3 100.0 344.2
03 03:20 15.8 67 9.02 9.7 26 30 1018.8 0 20.4 26.2 40.7 106.8 101.8 350.6
03 03:10 15.8 68 9.15 9.9 26 33 1018.8 0 20.7 26.4 41.2 108.2 103.5 356.6
03 03:00 15.8 69 9.29 10.1 24 35 1019 0 21.0 26.6 41.8 109.7 105.4 363.1
03 02:50 15.9 67 9.07 9.8 24 32 1018.9 0 20.5 26.2 40.9 107.2 102.3 352.5
03 02:40 16 66 8.99 9.7 26 32 1018.9 0 20.3 26.1 40.5 106.3 101.2 348.4
03 02:30 16 67 9.13 9.9 24 33 1018.8 0 20.6 26.3 41.0 107.7 103.0 354.8
03 02:20 16.1 67 9.18 10 20 24 1019 0 20.7 26.4 41.2 108.2 103.5 356.7
03 02:10 16.2 68 9.38 10.3 26 32 1018.9 0 21.1 26.7 41.9 110.1 106.0 365.4
03 02:00 16.2 69 9.51 10.5 24 33 1019.1 0 21.4 26.9 42.5 111.6 107.7 371.5
03 01:50 16.2 68 9.38 10.3 20 30 1019.1 0 21.1 26.7 42.0 110.2 106.0 365.5
03 01:40 16.4 67 9.35 10.3 32 39 1019.2 0 21.1 26.6 41.7 109.6 105.4 363.2
03 01:30 16.4 68 9.49 10.5 28 41 1019.2 0 21.3 26.8 42.3 111.1 107.2 369.6
03 01:20 16.4 67 9.35 10.3 26 37 1019 0 21.1 26.6 41.7 109.5 105.4 363.1
03 01:10 16.4 65 9.07 9.8 22 28 1019.3 0 20.5 26.1 40.6 106.6 101.7 350.4
03 01:00 16.5 61 8.57 9 28 43 1019.3 0 19.4 25.3 38.6 101.2 95.1 327.4
03 00:50 16.6 62 8.76 9.3 22 28 1019.5 0 19.8 25.6 39.3 103.1 97.5 335.5
03 00:40 16.8 58 8.29 8.5 30 37 1019.2 0 18.8 24.8 37.4 98.0 91.2 313.7
03 00:30 16.8 65 9.29 10.2 26 39 1019.6 0 20.9 26.4 41.3 108.4 104.1 358.7
03 00:20 16.8 66 9.44 10.4 28 33 1019.9 0 21.2 26.6 41.9 110.0 106.1 365.7
03 00:10 17 69 9.98 11.3 28 37 1020 0 22.4 27.4 44.0 115.6 112.9 389.7
03 00:00 17 69 9.98 11.3 28 39 1019.9 0 22.4 27.4 44.0 115.6 112.9 389.7
02 23:50 16.9 71 10.21 11.6 26 30 1020 0 22.9 27.8 45.0 118.2 116.2 401.0
02 23:40 17 71 10.27 11.7 26 33 1020.1 0 23.0 27.9 45.2 118.7 116.8 403.3
02 23:30 16.9 71 10.21 11.6 26 37 1020.1 0 22.9 27.8 45.0 118.2 116.2 401.0
02 23:20 17.2 73 10.69 12.3 26 32 1020 0 23.9 28.5 46.8 123.0 122.2 422.1
02 23:10 17.4 73 10.82 12.5 22 30 1020 0 24.1 28.7 47.2 124.2 123.7 427.2
02 23:00 17.7 74 11.16 13 24 35 1019.9 0 24.8 29.2 48.4 127.4 127.8 441.8
02 22:50 17.6 78 11.7 13.7 28 35 1019.7 0 26.0 30.1 50.8 133.7 135.4 468.4
02 22:40 17.4 79 11.71 13.7 28 32 1019.9 0 26.0 30.2 51.0 134.2 136.0 470.2
02 22:30 17.3 78 11.49 13.4 30 39 1019.7 0 25.6 29.9 50.1 131.8 133.0 460.0
02 22:20 17.3 78 11.49 13.4 35 43 1019.6 0 25.6 29.8 50.1 131.8 133.0 459.9
02 22:10 17.3 76 11.2 13 35 41 1019.4 0 24.9 29.3 48.8 128.5 129.0 445.8
02 22:00 17.2 76 11.13 12.9 33 44 1019.4 0 24.8 29.3 48.6 127.9 128.2 443.0
02 21:50 17.3 75 11.05 12.8 35 43 1019.3 0 24.6 29.1 48.2 126.8 126.9 438.5
02 21:40 17.3 75 11.05 12.8 33 39 1019.4 0 24.6 29.1 48.2 126.8 126.9 438.6
02 21:30 17.2 76 11.13 12.9 30 41 1019.3 0 24.8 29.3 48.6 127.9 128.2 443.0
02 21:20 17.3 76 11.2 13 30 37 1018.9 0 24.9 29.3 48.8 128.4 128.9 445.6
02 21:10 17.4 75 11.11 12.9 35 41 1018.7 0 24.7 29.1 48.3 127.2 127.5 440.7
02 21:00 17.7 75 11.31 13.2 35 48 1018.6 0 25.2 29.4 49.0 129.0 129.7 448.5
02 20:50 17.8 72 10.93 12.7 30 33 1018.5 0 24.3 28.7 47.3 124.6 124.4 429.8
02 20:40 17.8 72 10.93 12.7 28 33 1018.3 0 24.3 28.7 47.3 124.5 124.3 429.7
02 20:30 17.9 70 10.69 12.4 37 48 1018.2 0 23.8 28.2 46.3 121.7 120.9 417.8
02 20:20 17.8 74 11.23 13.1 35 46 1018 0 25.0 29.2 48.6 127.8 128.4 443.9
02 20:10 17.8 74 11.23 13.1 33 41 1018 0 25.0 29.2 48.6 127.8 128.4 443.9
02 20:00 17.9 74 11.3 13.2 33 50 1017.8 0 25.1 29.3 48.8 128.4 129.2 446.6
02 19:50 18 72 11.06 12.9 32 39 1017.7 0 24.6 28.8 47.7 125.6 125.7 434.6
02 19:40 18.1 73 11.28 13.2 37 41 1017.5 0 25.1 29.1 48.6 127.8 128.5 444.4
02 19:30 18.1 73 11.28 13.2 33 46 1017.3 0 25.1 29.1 48.6 127.8 128.5 444.4
02 19:20 18.3 71 11.1 13 41 50 1017.3 0 24.7 28.8 47.7 125.5 125.7 434.7
02 19:10 18.3 72 11.26 13.2 43 52 1017 0 25.0 29.0 48.3 127.2 127.9 442.2
02 19:00 18.6 69 10.98 12.8 39 52 1017 0 24.4 28.5 47.0 123.7 123.6 427.2
02 18:50 18.2 72 11.19 13.1 37 48 1016.7 0 24.9 28.9 48.1 126.6 127.1 439.3
02 18:40 18.4 69 10.85 12.6 43 54 1016.7 0 24.1 28.3 46.6 122.5 122.1 422.1
02 18:30 19.2 68 11.21 13.2 41 54 1016.7 0 24.9 28.6 47.6 125.2 125.7 434.6
02 18:20 19.1 67 10.98 12.8 37 46 1016.6 0 24.4 28.3 46.7 122.8 122.8 424.4
02 18:10 19.5 64 10.74 12.5 43 46 1016.5 0 23.8 27.8 45.5 119.6 119.0 411.1
02 18:00 19.6 64 10.8 12.6 43 57 1016.3 0 24.0 27.8 45.6 120.1 119.6 413.3
02 17:50 19.9 63 10.82 12.7 44 52 1016 0 24.0 27.7 45.5 119.8 119.3 412.5
02 17:40 20.1 61 10.6 12.3 44 56 1016 0 23.5 27.3 44.6 117.2 116.2 401.4
02 17:30 20.4 57 10.08 11.6 46 61 1016.1 0 22.4 26.4 42.4 111.3 109.1 376.6
02 17:20 20.3 61 10.73 12.5 50 56 1015.9 0 23.8 27.5 45.0 118.3 117.5 406.3
02 17:10 20.6 62 11.1 13.1 43 46 1016.1 0 24.5 28.0 46.3 121.7 121.9 421.7
02 17:00 20.1 64 11.12 13.1 41 56 1016.2 0 24.6 28.2 46.6 122.7 123.0 425.3
02 16:50 20 64 11.06 13 44 54 1016.1 0 24.5 28.1 46.5 122.2 122.4 423.1
02 16:40 20.1 64 11.12 13.1 41 50 1015.9 0 24.6 28.2 46.6 122.7 123.0 425.2
02 16:30 19.5 68 11.41 13.4 39 54 1015.7 0 25.3 28.8 48.2 126.8 127.8 442.0
02 16:20 20.3 62 10.9 12.8 37 46 1015.8 0 24.1 27.7 45.6 120.0 119.8 414.0
02 16:10 21.1 62 11.42 13.5 41 48 1016.1 0 25.2 28.3 47.2 124.4 125.4 433.7
02 16:00 21 63 11.54 13.7 41 56 1016.2 0 25.4 28.6 47.8 125.8 127.1 439.8

Last Refresh: 03-Dec-2021 08:46:17

Bureau of Meteorology